Time;durP1;ratioP1;P1;durP2;ratioP2;P2;SDS_P1;SDS_P2;PMS_P1;PMS_P2;Temp;Humidity;BMP_temperature;BMP_pressure;BME280_temperature;BME280_humidity;BME280_pressure;Samples;Min_cycle;Max_cycle;Signal;HPM_P1;HPM_P2
2023/08/31 00:02:01;;;;;;;0.82;0.10;;;;;;;11.18;100.00;100290.69;5056998;28;20486;-52
2023/08/31 00:04:26;;;;;;;0.28;0.15;;;;;;;11.11;100.00;100288.84;5050049;28;20029;-51
2023/08/31 00:06:51;;;;;;;1.85;0.10;;;;;;;11.11;100.00;100280.09;5055890;28;20040;-53
2023/08/31 00:09:16;;;;;;;3.83;0.10;;;;;;;11.06;100.00;100285.16;5051693;28;20032;-52
2023/08/31 00:11:42;;;;;;;2.47;0.20;;;;;;;10.96;100.00;100287.38;5055190;28;20362;-48
2023/08/31 00:14:07;;;;;;;1.23;0.30;;;;;;;10.93;100.00;100290.44;5051343;28;20040;-53
2023/08/31 00:16:33;;;;;;;0.90;0.30;;;;;;;10.91;100.00;100286.13;5068499;28;20111;-50
2023/08/31 00:18:58;;;;;;;0.45;0.10;;;;;;;10.95;100.00;100289.22;5054332;28;20051;-51
2023/08/31 00:21:24;;;;;;;0.65;0.38;;;;;;;10.94;100.00;100284.91;5050936;28;20051;-53
2023/08/31 00:23:49;;;;;;;2.08;0.10;;;;;;;10.88;100.00;100288.38;5047258;28;20067;-54
2023/08/31 00:26:15;;;;;;;1.35;0.30;;;;;;;10.92;100.00;100286.97;5054087;28;20028;-47
2023/08/31 00:28:42;;;;;;;1.25;0.90;;;;;;;10.93;100.00;100291.25;5054022;28;20028;-53
2023/08/31 00:31:08;;;;;;;1.75;0.25;;;;;;;10.85;100.00;100291.41;5057125;28;20032;-51
2023/08/31 00:33:34;;;;;;;0.52;0.52;;;;;;;10.80;100.00;100283.22;5053487;28;20485;-51
2023/08/31 00:36:03;;;;;;;0.70;0.32;;;;;;;10.77;100.00;100286.28;5048885;28;20039;-52
2023/08/31 00:38:29;;;;;;;0.28;0.20;;;;;;;10.72;100.00;100286.06;5046763;28;20683;-50
2023/08/31 00:40:55;;;;;;;2.10;0.38;;;;;;;10.70;100.00;100284.41;5057592;28;20174;-53
2023/08/31 00:43:20;;;;;;;1.02;0.20;;;;;;;10.66;100.00;100291.13;5058432;28;20025;-52
2023/08/31 00:45:50;;;;;;;0.70;0.22;;;;;;;10.63;100.00;100290.69;5048298;28;21246;-50
2023/08/31 00:48:16;;;;;;;2.28;0.10;;;;;;;10.61;100.00;100290.91;5055166;28;20032;-51
2023/08/31 00:50:43;;;;;;;0.15;0.15;;;;;;;10.56;100.00;100292.47;5054174;28;20170;-50
2023/08/31 00:53:09;;;;;;;2.42;0.60;;;;;;;10.54;100.00;100290.03;5061104;28;20032;-55
2023/08/31 00:55:34;;;;;;;3.35;0.30;;;;;;;10.59;100.00;100286.81;5055858;28;20150;-53
2023/08/31 00:58:00;;;;;;;3.10;0.08;;;;;;;10.64;100.00;100292.34;5062854;28;20449;-53
2023/08/31 01:00:58;;;;;;;1.98;0.20;;;;;;;10.60;100.00;100288.44;5053766;28;20025;-48
2023/08/31 01:03:52;;;;;;;0.95;0.35;;;;;;;10.58;100.00;100285.16;5056082;28;20055;-55
2023/08/31 01:06:29;;;;;;;3.30;1.17;;;;;;;10.45;100.00;100275.28;5048069;28;20041;-55
2023/08/31 01:09:14;;;;;;;6.07;0.75;;;;;;;10.46;100.00;100276.94;5055529;28;20051;-48
2023/08/31 01:11:56;;;;;;;0.25;0.10;;;;;;;10.36;100.00;100279.94;5048724;28;20055;-53
2023/08/31 01:14:25;;;;;;;1.65;1.15;;;;;;;10.31;100.00;100277.03;5061853;28;20046;-53
2023/08/31 01:16:53;;;;;;;0.73;0.20;;;;;;;10.34;100.00;100275.84;5050198;28;20041;-52
2023/08/31 01:19:40;;;;;;;1.67;0.32;;;;;;;10.35;100.00;100265.06;5062668;28;20499;-51
2023/08/31 01:22:11;;;;;;;0.82;0.20;;;;;;;10.32;100.00;100275.22;5070636;28;20036;-53
2023/08/31 01:24:37;;;;;;;2.00;0.32;;;;;;;10.25;100.00;100270.66;5054458;28;20711;-51
2023/08/31 01:27:03;;;;;;;0.82;0.30;;;;;;;10.09;100.00;100270.94;5050840;28;20084;-48
2023/08/31 01:29:30;;;;;;;1.33;0.82;;;;;;;10.13;100.00;100268.75;5050692;28;20029;-55
2023/08/31 01:31:55;;;;;;;0.22;0.20;;;;;;;10.17;100.00;100278.78;5060923;28;20060;-52
2023/08/31 01:34:20;;;;;;;0.38;0.20;;;;;;;10.29;100.00;100272.94;5058663;28;20456;-50
2023/08/31 01:36:52;;;;;;;0.15;0.15;;;;;;;10.37;100.00;100272.78;5059823;28;20035;-53
2023/08/31 01:39:27;;;;;;;1.80;0.70;;;;;;;10.40;100.00;100270.59;5054551;28;20051;-49
2023/08/31 01:42:00;;;;;;;0.57;0.30;;;;;;;10.43;100.00;100270.19;5056628;28;20028;-52
2023/08/31 01:44:27;;;;;;;0.50;0.30;;;;;;;10.44;100.00;100263.06;5046767;28;20038;-51
2023/08/31 01:46:54;;;;;;;1.13;0.40;;;;;;;10.45;100.00;100270.81;5052124;28;20124;-50
2023/08/31 01:49:20;;;;;;;0.90;0.20;;;;;;;10.47;100.00;100274.06;5049717;28;20059;-51
2023/08/31 01:51:46;;;;;;;1.05;0.45;;;;;;;10.46;100.00;100267.16;5055210;28;20039;-49
2023/08/31 01:54:11;;;;;;;0.47;0.13;;;;;;;10.38;100.00;100258.56;5052049;28;20222;-51
2023/08/31 01:56:36;;;;;;;1.33;0.75;;;;;;;10.33;100.00;100261.78;5057613;28;20039;-51
2023/08/31 01:59:02;;;;;;;1.13;0.50;;;;;;;10.26;100.00;100266.19;5051438;28;20841;-48
2023/08/31 02:01:29;;;;;;;1.55;0.52;;;;;;;10.22;100.00;100267.56;5059776;28;20107;-51
2023/08/31 02:03:54;;;;;;;2.85;1.02;;;;;;;10.17;100.00;100273.47;5053674;28;20035;-53
2023/08/31 02:06:19;;;;;;;2.65;0.35;;;;;;;10.14;100.00;100265.88;5043702;28;20025;-50
2023/08/31 02:08:47;;;;;;;0.65;0.50;;;;;;;10.20;100.00;100273.06;5047855;28;20052;-51
2023/08/31 02:11:12;;;;;;;0.30;0.20;;;;;;;10.32;100.00;100273.38;5062094;28;20075;-52
2023/08/31 02:13:38;;;;;;;0.73;0.30;;;;;;;10.45;100.00;100276.13;5048327;28;20060;-52
2023/08/31 02:16:04;;;;;;;1.30;0.63;;;;;;;10.52;100.00;100276.16;5050613;28;20492;-53
2023/08/31 02:18:29;;;;;;;2.50;0.10;;;;;;;10.57;100.00;100267.63;5048600;28;20027;-50
2023/08/31 02:20:54;;;;;;;2.20;0.10;;;;;;;10.61;100.00;100263.53;5047438;28;20036;-47
2023/08/31 02:23:20;;;;;;;2.20;0.50;;;;;;;10.61;100.00;100263.53;5045287;28;20443;-53
2023/08/31 02:25:45;;;;;;;1.38;0.32;;;;;;;10.56;100.00;100256.19;5050583;28;20528;-53
2023/08/31 02:28:11;;;;;;;3.25;0.70;;;;;;;10.48;100.00;100251.88;5051347;28;20032;-48
2023/08/31 02:30:36;;;;;;;1.45;0.65;;;;;;;10.36;100.00;100253.44;5058382;28;20049;-50
2023/08/31 02:33:02;;;;;;;0.25;0.20;;;;;;;10.38;100.00;100255.91;5040223;28;20044;-52
2023/08/31 02:35:27;;;;;;;1.75;0.30;;;;;;;10.42;100.00;100257.13;5057676;28;20491;-52
2023/08/31 02:37:52;;;;;;;0.98;0.32;;;;;;;10.45;100.00;100254.91;5064736;28;20074;-53
2023/08/31 02:40:18;;;;;;;0.30;0.30;;;;;;;10.50;100.00;100254.31;5048101;28;20112;-53
2023/08/31 02:42:43;;;;;;;1.85;0.30;;;;;;;10.52;100.00;100251.47;5051796;28;20116;-51
2023/08/31 02:45:08;;;;;;;1.42;0.40;;;;;;;10.60;100.00;100252.13;5047583;28;20071;-54
2023/08/31 02:47:34;;;;;;;0.30;0.30;;;;;;;10.63;100.00;100257.03;5047770;28;20064;-53
2023/08/31 02:49:59;;;;;;;0.75;0.17;;;;;;;10.65;100.00;100259.50;5052114;28;20492;-50
2023/08/31 02:52:25;;;;;;;4.03;0.43;;;;;;;10.65;100.00;100259.50;5047286;28;20600;-52
2023/08/31 02:54:50;;;;;;;1.23;0.22;;;;;;;10.59;100.00;100255.81;5054143;28;20660;-50
2023/08/31 02:57:19;;;;;;;0.85;0.40;;;;;;;10.53;100.00;100256.56;5049912;28;20067;-50
2023/08/31 02:59:46;;;;;;;0.45;0.25;;;;;;;10.55;100.00;100254.53;5056410;28;20440;-49
2023/08/31 03:02:11;;;;;;;1.15;0.90;;;;;;;10.57;100.00;100260.47;5055396;28;20021;-54
2023/08/31 03:04:37;;;;;;;1.40;0.60;;;;;;;10.58;100.00;100262.09;5047274;28;21049;-51
2023/08/31 03:07:04;;;;;;;1.50;0.90;;;;;;;10.57;100.00;100257.00;5050713;28;20033;-52
2023/08/31 03:09:29;;;;;;;2.08;0.77;;;;;;;10.58;100.00;100256.78;5053821;28;20028;-53
2023/08/31 03:11:54;;;;;;;0.43;0.32;;;;;;;10.58;100.00;100258.63;5051345;28;20021;-50
2023/08/31 03:14:19;;;;;;;1.08;0.10;;;;;;;10.55;100.00;100266.97;5049506;28;20032;-51
2023/08/31 03:16:45;;;;;;;1.52;0.43;;;;;;;10.56;100.00;100265.97;5051740;28;20032;-52
2023/08/31 03:19:10;;;;;;;2.50;0.52;;;;;;;10.52;100.00;100260.25;5053473;28;20038;-50
2023/08/31 03:21:36;;;;;;;1.77;0.40;;;;;;;10.54;100.00;100260.88;5047471;28;20048;-50
2023/08/31 03:24:01;;;;;;;1.00;0.90;;;;;;;10.59;100.00;100260.28;5050971;28;20036;-53
2023/08/31 03:26:27;;;;;;;1.00;0.60;;;;;;;10.61;100.00;100252.94;5053075;28;20028;-53
2023/08/31 03:28:52;;;;;;;1.20;0.30;;;;;;;10.60;100.00;100240.69;5050903;28;20033;-51
2023/08/31 03:31:17;;;;;;;4.18;0.63;;;;;;;10.63;100.00;100249.06;5047380;28;20102;-53
2023/08/31 03:33:44;;;;;;;1.15;0.30;;;;;;;10.62;100.00;100251.94;5047565;28;20049;-54
2023/08/31 03:36:09;;;;;;;0.50;0.43;;;;;;;10.58;100.00;100254.16;5046207;28;20091;-53
2023/08/31 03:38:38;;;;;;;3.13;0.32;;;;;;;10.51;100.00;100260.44;5050841;28;20032;-52
2023/08/31 03:41:03;;;;;;;0.85;0.60;;;;;;;10.46;100.00;100255.75;5053323;28;20032;-52
2023/08/31 03:43:29;;;;;;;0.77;0.52;;;;;;;10.48;100.00;100257.19;5050082;28;20025;-53
2023/08/31 03:45:55;;;;;;;1.70;0.20;;;;;;;10.51;100.00;100257.78;5048142;28;20660;-53
2023/08/31 03:48:21;;;;;;;1.23;0.43;;;;;;;10.43;100.00;100256.94;5047035;28;20151;-52
2023/08/31 03:50:50;;;;;;;2.70;0.63;;;;;;;10.33;100.00;100256.47;5048381;28;20116;-53
2023/08/31 03:53:15;;;;;;;2.08;0.25;;;;;;;10.40;100.00;100256.50;5054961;28;20079;-52
2023/08/31 03:55:40;;;;;;;2.17;0.32;;;;;;;10.52;100.00;100257.59;5049629;28;20393;-52
2023/08/31 03:58:05;;;;;;;0.25;0.20;;;;;;;10.57;100.00;100251.72;5050491;28;20064;-48
2023/08/31 04:00:31;;;;;;;1.42;0.40;;;;;;;10.56;100.00;100255.34;5046682;28;20032;-52
2023/08/31 04:02:56;;;;;;;1.80;0.70;;;;;;;10.54;100.00;100258.22;5054321;28;20040;-53
2023/08/31 04:05:21;;;;;;;0.93;0.20;;;;;;;10.54;100.00;100258.22;5049832;28;20033;-49
2023/08/31 04:07:47;;;;;;;2.08;0.43;;;;;;;10.58;100.00;100263.94;5056340;28;20059;-53
2023/08/31 04:10:12;;;;;;;0.73;0.35;;;;;;;10.62;100.00;100260.69;5052635;28;20039;-50
2023/08/31 04:12:37;;;;;;;2.25;0.80;;;;;;;10.67;100.00;100257.47;5050031;28;20111;-51
2023/08/31 04:15:04;;;;;;;3.50;0.60;;;;;;;10.66;100.00;100264.63;5053117;28;20029;-53
2023/08/31 04:17:29;;;;;;;0.82;0.57;;;;;;;10.70;100.00;100272.97;5050466;28;20107;-53
2023/08/31 04:19:54;;;;;;;3.25;0.50;;;;;;;10.76;100.00;100277.47;5056539;28;20112;-52
2023/08/31 04:22:20;;;;;;;0.77;0.52;;;;;;;10.74;100.00;100268.94;5053069;28;20036;-53
2023/08/31 04:24:46;;;;;;;2.15;0.55;;;;;;;10.72;100.00;100272.78;5052551;28;20033;-53
2023/08/31 04:27:11;;;;;;;0.80;0.28;;;;;;;10.67;100.00;100266.22;5045547;28;20147;-51
2023/08/31 04:29:37;;;;;;;0.70;0.38;;;;;;;10.68;100.00;100272.34;5052356;28;20032;-53
2023/08/31 04:32:06;;;;;;;0.95;0.60;;;;;;;10.69;100.00;100271.34;5048092;28;20349;-52
2023/08/31 04:34:32;;;;;;;2.42;0.47;;;;;;;10.67;100.00;100281.34;5052115;28;20045;-52
2023/08/31 04:36:58;;;;;;;0.95;0.30;;;;;;;10.61;100.00;100282.94;5059189;28;20043;-53
2023/08/31 04:39:23;;;;;;;0.40;0.20;;;;;;;10.62;100.00;100281.91;5047299;28;20477;-52
2023/08/31 04:41:48;;;;;;;0.70;0.20;;;;;;;10.61;100.00;100280.28;5054156;28;20062;-53
2023/08/31 04:44:14;;;;;;;1.88;0.20;;;;;;;10.62;100.00;100276.63;5057746;28;20041;-53
2023/08/31 04:46:39;;;;;;;1.75;0.30;;;;;;;10.60;100.00;100273.34;5052756;28;20489;-54
2023/08/31 04:49:04;;;;;;;1.48;0.47;;;;;;;10.63;100.00;100283.53;5052983;28;20040;-51
2023/08/31 04:51:35;;;;;;;2.40;0.70;;;;;;;10.57;100.00;100270.25;5058406;28;20041;-51
2023/08/31 04:54:01;;;;;;;3.38;0.50;;;;;;;10.63;100.00;100277.44;5060335;28;20385;-52
2023/08/31 04:56:34;;;;;;;3.22;0.77;;;;;;;10.65;100.00;100264.78;5052970;28;20025;-50
2023/08/31 04:59:00;;;;;;;0.75;0.47;;;;;;;10.73;100.00;100261.16;5063775;28;20024;-53
2023/08/31 05:01:25;;;;;;;0.30;0.20;;;;;;;10.72;100.00;100270.97;5047271;28;20037;-52
2023/08/31 05:03:51;;;;;;;3.45;0.60;;;;;;;10.65;100.00;100268.25;5053492;28;20029;-53
2023/08/31 05:06:16;;;;;;;0.20;0.20;;;;;;;10.62;100.00;100279.25;5059276;28;20094;-53
2023/08/31 05:08:41;;;;;;;1.63;0.38;;;;;;;10.66;100.00;100280.53;5053468;28;20035;-52
2023/08/31 05:11:07;;;;;;;2.35;0.25;;;;;;;10.67;100.00;100279.50;5057299;28;20040;-51
2023/08/31 05:13:32;;;;;;;0.68;0.30;;;;;;;10.69;100.00;100280.13;5056754;28;20040;-55
2023/08/31 05:15:57;;;;;;;0.40;0.20;;;;;;;10.76;100.00;100279.31;5057355;28;20438;-51
2023/08/31 05:18:23;;;;;;;1.40;0.25;;;;;;;10.85;100.00;100283.47;5052406;28;20032;-54
2023/08/31 05:20:48;;;;;;;3.20;0.70;;;;;;;10.83;100.00;100283.66;5050369;28;20129;-54
2023/08/31 05:23:14;;;;;;;0.70;0.70;;;;;;;10.85;100.00;100278.16;5053913;28;20029;-52
2023/08/31 05:25:43;;;;;;;0.73;0.28;;;;;;;10.90;100.00;100279.19;5050462;28;20041;-51
2023/08/31 05:28:09;;;;;;;1.95;1.00;;;;;;;10.95;100.00;100275.94;5048357;28;21355;-50
2023/08/31 05:30:34;;;;;;;0.68;0.20;;;;;;;11.01;100.00;100271.69;5051501;28;20381;-51
2023/08/31 05:33:00;;;;;;;2.08;1.00;;;;;;;11.04;100.00;100261.47;5051437;28;20035;-54
2023/08/31 05:35:25;;;;;;;6.03;0.70;;;;;;;11.03;100.00;100267.00;5049754;28;20131;-53
2023/08/31 05:37:51;;;;;;;1.25;1.02;;;;;;;11.07;100.00;100266.38;5050896;28;20438;-50
2023/08/31 05:40:16;;;;;;;2.00;0.60;;;;;;;11.10;100.00;100257.19;5059898;28;20027;-49
2023/08/31 05:42:42;;;;;;;2.65;1.27;;;;;;;11.16;100.00;100260.91;5054134;28;20040;-52
2023/08/31 05:45:08;;;;;;;1.08;0.20;;;;;;;11.13;100.00;100264.78;5042304;28;20033;-50
2023/08/31 05:47:34;;;;;;;2.40;0.40;;;;;;;11.12;100.00;100261.28;5052445;28;20051;-47
2023/08/31 05:50:00;;;;;;;4.75;0.73;;;;;;;11.19;100.00;100260.50;5054698;28;20085;-50
2023/08/31 05:52:26;;;;;;;0.73;0.43;;;;;;;11.17;100.00;100266.00;5050233;28;20107;-50
2023/08/31 05:54:52;;;;;;;0.75;0.22;;;;;;;11.17;100.00;100278.47;5050894;28;20386;-52
2023/08/31 05:57:22;;;;;;;6.70;1.38;;;;;;;11.13;100.00;100273.56;5065894;28;20069;-52
2023/08/31 05:59:48;;;;;;;1.17;0.70;;;;;;;11.22;100.00;100278.69;5056192;28;20036;-51
2023/08/31 06:02:14;;;;;;;6.10;0.30;;;;;;;11.26;100.00;100287.91;5053406;28;20698;-49
2023/08/31 06:04:39;;;;;;;3.30;0.32;;;;;;;11.35;100.00;100300.75;5051630;28;20382;-53
2023/08/31 06:07:04;;;;;;;3.40;1.10;;;;;;;11.39;100.00;100298.53;5052915;28;20060;-51
2023/08/31 06:09:30;;;;;;;5.68;0.47;;;;;;;11.47;100.00;100295.69;5056794;28;20036;-49
2023/08/31 06:11:55;;;;;;;1.35;1.27;;;;;;;11.53;100.00;100300.19;5055735;28;20033;-48
2023/08/31 06:14:23;;;;;;;0.73;0.38;;;;;;;11.65;100.00;100296.97;5052531;28;20358;-51
2023/08/31 06:16:49;;;;;;;1.80;0.65;;;;;;;11.70;100.00;100295.31;5052595;28;20040;-50
2023/08/31 06:19:15;;;;;;;1.27;0.95;;;;;;;11.77;100.00;100301.47;5051503;28;20036;-53
2023/08/31 06:21:41;;;;;;;4.38;1.70;;;;;;;11.90;100.00;100290.06;5050440;28;20035;-49
2023/08/31 06:24:09;;;;;;;0.60;0.38;;;;;;;12.04;100.00;100295.38;5051590;28;20094;-53
2023/08/31 06:26:35;;;;;;;0.63;0.20;;;;;;;12.14;100.00;100290.47;5050294;28;20029;-49
2023/08/31 06:29:00;;;;;;;1.08;0.70;;;;;;;12.20;100.00;100292.28;5055894;28;20051;-51
2023/08/31 06:31:26;;;;;;;3.03;0.35;;;;;;;12.21;100.00;100286.78;5051530;28;20610;-51
2023/08/31 06:33:51;;;;;;;2.45;0.40;;;;;;;12.22;100.00;100290.25;5055400;28;20714;-51
2023/08/31 06:36:16;;;;;;;2.22;0.95;;;;;;;12.22;100.00;100290.25;5051697;28;21270;-51
2023/08/31 06:38:42;;;;;;;1.55;0.30;;;;;;;12.21;100.00;100296.59;5050438;28;20143;-51
2023/08/31 06:41:08;;;;;;;0.85;0.70;;;;;;;12.20;100.00;100300.25;5050189;28;20123;-54
2023/08/31 06:43:34;;;;;;;3.25;1.83;;;;;;;12.21;100.00;100304.56;5051364;28;20033;-53
2023/08/31 06:45:59;;;;;;;1.42;0.80;;;;;;;12.21;100.00;100308.03;5053963;28;20036;-53
2023/08/31 06:48:25;;;;;;;4.32;1.00;;;;;;;12.19;100.00;100310.09;5051056;28;20033;-52
2023/08/31 06:50:50;;;;;;;1.70;0.52;;;;;;;12.21;100.00;100309.88;5052755;28;20052;-52
2023/08/31 06:53:15;;;;;;;0.40;0.38;;;;;;;12.27;100.00;100314.38;5052133;28;20047;-49
2023/08/31 06:55:41;;;;;;;0.40;0.40;;;;;;;12.36;100.00;100310.47;5050649;28;20386;-51
2023/08/31 06:58:06;;;;;;;3.30;0.55;;;;;;;12.49;100.00;100311.47;5054919;28;20047;-54
2023/08/31 07:00:34;;;;;;;2.38;0.30;;;;;;;12.58;100.00;100318.22;5054894;28;20131;-52
2023/08/31 07:03:00;;;;;;;0.93;0.17;;;;;;;12.70;100.00;100313.91;5052588;28;20036;-51
2023/08/31 07:05:26;;;;;;;2.67;0.30;;;;;;;12.86;100.00;100310.75;5046523;28;20047;-55
2023/08/31 07:07:55;;;;;;;2.10;0.93;;;;;;;12.98;100.00;100302.94;5051365;28;20031;-56
2023/08/31 07:10:21;;;;;;;1.92;0.28;;;;;;;13.14;100.00;100304.31;5052094;28;20092;-55
2023/08/31 07:12:46;;;;;;;0.35;0.30;;;;;;;13.28;100.00;100308.56;5051997;28;20074;-54
2023/08/31 07:15:12;;;;;;;0.82;0.38;;;;;;;13.35;100.00;100303.22;5049676;28;20029;-51
2023/08/31 07:17:37;;;;;;;1.58;0.20;;;;;;;13.44;100.00;100291.25;5056501;28;20024;-54
2023/08/31 07:20:05;;;;;;;3.92;0.70;;;;;;;13.46;100.00;100299.88;5050678;28;20024;-50
2023/08/31 07:22:32;;;;;;;4.35;0.17;;;;;;;13.55;100.00;100299.59;5046723;28;20479;-51
2023/08/31 07:24:58;;;;;;;0.38;0.13;;;;;;;13.70;100.00;100294.78;5050913;28;20112;-52
2023/08/31 07:27:23;;;;;;;2.17;0.35;;;;;;;13.85;100.00;100297.94;5048106;28;20033;-53
2023/08/31 07:29:48;;;;;;;0.98;0.38;;;;;;;13.96;100.00;100289.28;5051813;28;20473;-55
2023/08/31 07:32:14;;;;;;;2.22;0.32;;;;;;;14.10;100.00;100294.50;5046641;28;20155;-54
2023/08/31 07:34:39;;;;;;;3.38;0.45;;;;;;;14.19;100.00;100288.63;5047368;28;20037;-52
2023/08/31 07:37:06;;;;;;;0.90;0.77;;;;;;;14.29;100.00;100279.31;5050192;28;20477;-54
2023/08/31 07:39:31;;;;;;;0.60;0.55;;;;;;;14.40;100.00;100279.44;5054275;28;20110;-54
2023/08/31 07:41:59;;;;;;;0.50;0.28;;;;;;;14.51;100.00;100275.22;5055179;28;20070;-55
2023/08/31 07:44:24;;;;;;;5.75;0.50;;;;;;;14.69;100.00;100276.25;5053738;28;20075;-52
2023/08/31 07:46:49;;;;;;;5.68;0.73;;;;;;;14.89;100.00;100276.84;5046957;28;20489;-54
2023/08/31 07:49:15;;;;;;;1.67;0.25;;;;;;;15.13;100.00;100274.31;5047075;28;20033;-55
2023/08/31 07:51:40;;;;;;;2.53;0.80;;;;;;;15.38;100.00;100272.28;5048175;28;20488;-52
2023/08/31 07:54:05;;;;;;;3.65;0.60;;;;;;;15.62;100.00;100264.34;5056696;28;20033;-55
2023/08/31 07:56:30;;;;;;;3.55;0.55;;;;;;;15.84;100.00;100268.13;5047441;28;20474;-54
2023/08/31 07:58:56;;;;;;;1.55;0.60;;;;;;;15.95;100.00;100257.66;5053573;28;20033;-55
2023/08/31 08:01:21;;;;;;;0.80;0.20;;;;;;;16.02;100.00;100253.03;5046106;28;20041;-48
2023/08/31 08:03:47;;;;;;;0.43;0.43;;;;;;;15.89;100.00;100249.53;5051441;28;20033;-51
2023/08/31 08:06:12;;;;;;;5.30;0.50;;;;;;;15.77;100.00;100248.69;5052436;28;20094;-51
2023/08/31 08:08:37;;;;;;;3.60;1.27;;;;;;;15.71;100.00;100254.97;5057259;28;20083;-54
2023/08/31 08:11:04;;;;;;;4.90;0.52;;;;;;;15.68;100.00;100255.41;5045411;28;20643;-54
2023/08/31 08:13:29;;;;;;;3.10;0.50;;;;;;;15.71;100.00;100257.66;5054172;28;20052;-54
2023/08/31 08:15:55;;;;;;;4.35;1.13;;;;;;;15.78;100.00;100258.34;5057691;28;20116;-52
2023/08/31 08:18:20;;;;;;;2.35;0.75;;;;;;;15.82;100.00;100256.03;5052485;28;20043;-53
2023/08/31 08:20:50;;;;;;;1.73;0.30;;;;;;;15.76;100.00;100256.97;5052350;28;20374;-53
2023/08/31 08:23:15;;;;;;;2.58;0.45;;;;;;;15.79;100.00;100251.16;5055828;28;20071;-55
2023/08/31 08:25:40;;;;;;;2.55;0.73;;;;;;;15.76;100.00;100256.97;5050295;28;20108;-52
2023/08/31 08:28:05;;;;;;;1.92;0.50;;;;;;;15.79;100.00;100259.97;5050623;28;20127;-53
2023/08/31 08:30:31;;;;;;;5.32;0.43;;;;;;;15.85;100.00;100259.06;5051411;28;20043;-50
2023/08/31 08:32:57;;;;;;;1.38;0.52;;;;;;;15.87;100.00;100264.97;5056054;28;20031;-50
2023/08/31 08:35:22;;;;;;;1.30;0.15;;;;;;;15.91;100.00;100266.16;5048501;28;20029;-52
2023/08/31 08:37:47;;;;;;;1.48;0.20;;;;;;;15.87;100.00;100264.97;5056960;28;20070;-54
2023/08/31 08:40:13;;;;;;;2.28;0.17;;;;;;;15.90;100.00;100264.53;5052884;28;20033;-53
2023/08/31 08:42:41;;;;;;;2.78;0.60;;;;;;;15.96;100.00;100257.44;5046388;28;20478;-55
2023/08/31 08:45:12;;;;;;;2.80;0.45;;;;;;;15.94;100.00;100269.41;5041720;28;20037;-53
2023/08/31 08:47:39;;;;;;;2.63;1.65;;;;;;;15.92;100.00;100264.28;5044367;28;20576;-54
2023/08/31 08:50:05;;;;;;;6.97;0.98;;;;;;;15.94;100.00;100270.22;5046048;28;20047;-53
2023/08/31 08:52:31;;;;;;;2.90;0.70;;;;;;;15.94;100.00;100269.41;5050575;28;20028;-54
2023/08/31 08:54:57;;;;;;;2.28;0.63;;;;;;;15.92;100.00;100267.78;5046852;28;20029;-54
2023/08/31 08:57:22;;;;;;;2.08;0.52;;;;;;;15.86;100.00;100268.72;5053813;28;20024;-49
2023/08/31 08:59:48;;;;;;;7.60;0.50;;;;;;;15.82;100.00;100264.84;5051770;28;20025;-53
2023/08/31 09:02:13;;;;;;;3.80;0.77;;;;;;;15.80;100.00;100269.66;5048902;28;20045;-55
2023/08/31 09:04:39;;;;;;;3.10;0.75;;;;;;;15.77;100.00;100272.75;5051363;28;20036;-51
2023/08/31 09:07:04;;;;;;;2.10;0.93;;;;;;;15.70;100.00;100272.06;5044869;28;20036;-53
2023/08/31 09:09:30;;;;;;;3.92;0.57;;;;;;;15.64;100.00;100268.44;5055639;28;20064;-52
2023/08/31 09:11:58;;;;;;;2.22;0.50;;;;;;;15.64;100.00;100272.94;5048792;28;20074;-56
2023/08/31 09:14:23;;;;;;;4.43;0.70;;;;;;;15.71;100.00;100281.69;5052181;28;20434;-54
2023/08/31 09:16:51;;;;;;;2.10;0.70;;;;;;;15.81;100.00;100279.28;5047369;28;20056;-51
2023/08/31 09:19:24;;;;;;;0.70;0.30;;;;;;;15.92;100.00;100275.00;5050085;28;20492;-55
2023/08/31 09:21:51;;;;;;;1.23;0.40;;;;;;;16.12;100.00;100269.31;5053235;28;20029;-55
2023/08/31 09:24:18;;;;;;;2.42;0.68;;;;;;;16.19;100.00;100258.50;5051415;28;20036;-55
2023/08/31 09:26:46;;;;;;;3.70;0.60;;;;;;;16.39;100.00;100269.63;5051088;28;20032;-55
2023/08/31 09:29:12;;;;;;;0.73;0.57;;;;;;;16.62;100.00;100263.44;5044278;28;20504;-54
2023/08/31 09:31:37;;;;;;;3.25;0.80;;;;;;;16.63;100.00;100251.69;5050530;28;20477;-54
2023/08/31 09:34:03;;;;;;;1.08;0.40;;;;;;;16.70;100.00;100263.09;5042836;28;20052;-57
2023/08/31 09:36:28;;;;;;;2.78;0.55;;;;;;;16.74;100.00;100258.06;5040493;28;20135;-53
2023/08/31 09:38:57;;;;;;;5.10;0.95;;;;;;;16.76;100.00;100254.09;5039519;28;20390;-51
2023/08/31 09:41:23;;;;;;;5.03;0.77;;;;;;;16.78;100.00;100251.22;5036445;28;20546;-52
2023/08/31 09:43:48;;;;;;;1.17;0.65;;;;;;;16.73;100.00;100245.75;5040090;28;20025;-53
2023/08/31 09:46:14;;;;;;;1.23;0.57;;;;;;;16.82;100.00;100251.56;5040914;28;20138;-56
2023/08/31 09:48:41;;;;;;;0.93;0.47;;;;;;;16.93;100.00;100245.34;5047956;28;20028;-52
2023/08/31 09:51:09;;;;;;;4.95;0.63;;;;;;;17.06;100.00;100246.91;5040674;28;20055;-55
2023/08/31 09:53:37;;;;;;;4.65;1.00;;;;;;;17.14;100.00;100249.22;5044999;28;20508;-52
2023/08/31 09:56:05;;;;;;;1.45;0.30;;;;;;;16.87;100.00;100239.06;5052485;28;20041;-52
2023/08/31 09:58:31;;;;;;;7.90;1.05;;;;;;;16.98;100.00;100237.41;5042297;28;20041;-54
2023/08/31 10:00:57;;;;;;;2.15;1.00;;;;;;;17.14;100.00;100239.31;5046742;28;20029;-55
2023/08/31 10:03:23;;;;;;;3.05;0.70;;;;;;;17.23;100.00;100232.50;5054757;28;20104;-55
2023/08/31 10:05:50;;;;;;;5.65;1.77;;;;;;;17.31;100.00;100230.50;5045708;28;20535;-53
2023/08/31 10:08:16;;;;;;;4.05;0.50;;;;;;;17.50;100.00;100231.88;5048730;28;20043;-53
2023/08/31 10:10:41;;;;;;;2.20;1.45;;;;;;;17.74;100.00;100229.06;5047545;28;20028;-54
2023/08/31 10:13:08;;;;;;;4.07;0.50;;;;;;;18.03;100.00;100230.59;5051059;28;20033;-54
2023/08/31 10:15:35;;;;;;;3.58;0.55;;;;;;;18.20;100.00;100235.13;5048584;28;20762;-55
2023/08/31 10:18:02;;;;;;;3.65;0.60;;;;;;;18.28;100.00;100235.53;5046940;28;20082;-55
2023/08/31 10:20:31;;;;;;;1.38;0.40;;;;;;;18.41;100.00;100225.50;5046945;28;20416;-54
2023/08/31 10:23:03;;;;;;;5.13;1.42;;;;;;;18.63;100.00;100228.16;5043918;28;20426;-52
2023/08/31 10:25:53;;;;;;;3.00;0.88;;;;;;;19.02;100.00;100228.09;5043734;28;20036;-55
2023/08/31 10:28:19;;;;;;;11.43;0.77;;;;;;;19.20;100.00;100222.38;5050511;28;20032;-53
2023/08/31 10:31:08;;;;;;;2.10;0.45;;;;;;;19.29;100.00;100220.84;5047690;28;20051;-53
2023/08/31 10:33:42;;;;;;;3.50;0.45;;;;;;;19.46;100.00;100214.53;5045472;28;20037;-54
2023/08/31 10:36:18;;;;;;;1.02;0.50;;;;;;;19.53;100.00;100210.56;5049500;28;20298;-55
2023/08/31 10:38:56;;;;;;;3.45;0.40;;;;;;;19.55;100.00;100207.63;5042109;28;20768;-52
2023/08/31 10:41:22;;;;;;;3.88;0.30;;;;;;;19.59;100.00;100200.66;5048148;28;20123;-53
2023/08/31 10:43:51;;;;;;;0.73;0.55;;;;;;;19.50;100.00;100199.50;5043480;28;20044;-55
2023/08/31 10:46:17;;;;;;;3.40;0.88;;;;;;;19.33;100.00;100192.38;5037212;28;20091;-53
2023/08/31 10:48:53;;;;;;;9.05;1.02;;;;;;;19.42;100.00;100202.69;5044925;28;20020;-53
2023/08/31 10:51:21;;;;;;;3.35;0.55;;;;;;;19.16;100.00;100203.25;5046300;28;20043;-54
2023/08/31 10:53:47;;;;;;;2.20;0.90;;;;;;;19.07;100.00;100203.97;5046884;28;20398;-53
2023/08/31 10:56:12;;;;;;;5.15;1.35;;;;;;;18.74;100.00;100200.34;5046566;28;20060;-52
2023/08/31 10:58:37;;;;;;;2.15;0.50;;;;;;;18.81;100.00;100206.38;5046453;28;20016;-53
2023/08/31 11:01:03;;;;;;;2.10;0.30;;;;;;;18.91;100.00;100205.69;5052063;28;20414;-54
2023/08/31 11:03:30;;;;;;;0.47;0.20;;;;;;;19.00;100.00;100198.81;5047324;28;20064;-54
2023/08/31 11:05:55;;;;;;;0.68;0.38;;;;;;;19.01;100.00;100200.44;5043604;28;20545;-50
2023/08/31 11:08:24;;;;;;;1.95;0.25;;;;;;;18.91;100.00;100200.31;5047052;28;20106;-51
2023/08/31 11:10:51;;;;;;;3.13;0.52;;;;;;;18.99;100.00;100204.44;5046129;28;20040;-52
2023/08/31 11:13:19;;;;;;;2.95;0.60;;;;;;;18.95;100.00;100204.94;5030455;28;20064;-54
2023/08/31 11:15:47;;;;;;;2.38;0.80;;;;;;;18.86;100.00;100197.56;5048489;28;20039;-54